Time;durP1;ratioP1;P1;durP2;ratioP2;P2;SDS_P1;SDS_P2;PMS_P1;PMS_P2;Temp;Humidity;BMP_temperature;BMP_pressure;BME280_temperature;BME280_humidity;BME280_pressure;Samples;Min_cycle;Max_cycle;Signal;HPM_P1;HPM_P2
2022/01/23 00:02:23;;;;;;;36.67;15.70;;;;;;;-2.88;82.95;101894.08;1666776;86;21498;-74
2022/01/23 00:04:43;;;;;;;26.77;12.30;;;;;;;-2.89;82.49;101898.75;1664561;86;21045;-76
2022/01/23 00:07:13;;;;;;;32.23;15.27;;;;;;;-2.87;82.76;101904.42;1666808;86;21186;-75
2022/01/23 00:09:41;;;;;;;33.37;15.10;;;;;;;-2.81;82.59;101903.80;1666691;85;20992;-74
2022/01/23 00:12:14;;;;;;;21.93;10.57;;;;;;;-2.81;82.45;101902.11;1666681;86;21051;-74
2022/01/23 00:17:33;;;;;;;36.67;13.70;;;;;;;-2.74;82.24;101914.39;1666902;86;21132;-74
2022/01/23 00:19:58;;;;;;;29.95;14.00;;;;;;;-2.77;82.25;101906.95;1666122;86;21514;-74
2022/01/23 00:22:50;;;;;;;30.73;12.40;;;;;;;-2.79;82.00;101903.05;1667045;86;21010;-74
2022/01/23 00:30:47;;;;;;;30.57;12.10;;;;;;;-2.60;82.85;101885.44;1666847;86;21057;-74
2022/01/23 00:33:15;;;;;;;22.00;10.43;;;;;;;-2.50;83.17;101887.95;1666862;86;21128;-74
2022/01/23 00:35:46;;;;;;;;;;;;;;;-2.39;83.39;101903.79;1669130;85;21016;-74
2022/01/23 00:38:14;;;;;;;30.33;11.93;;;;;;;-2.31;83.46;101911.39;1666743;86;20488;-76
2022/01/23 00:40:43;;;;;;;21.77;11.20;;;;;;;-2.27;83.42;101912.00;1666791;86;21525;-76
2022/01/23 00:43:17;;;;;;;28.03;12.37;;;;;;;-2.21;83.48;101910.95;1666741;86;21520;-75
2022/01/23 00:45:49;;;;;;;25.03;11.37;;;;;;;-2.15;83.52;101902.19;1667044;86;21197;-74
2022/01/23 00:48:16;;;;;;;22.57;11.00;;;;;;;-2.06;83.63;101901.25;1666244;86;21048;-75
2022/01/23 00:50:45;;;;;;;24.33;10.83;;;;;;;-1.96;83.65;101900.34;1667026;86;21519;-74
2022/01/23 00:53:14;;;;;;;23.67;11.23;;;;;;;-1.88;83.72;101900.22;1666969;86;21016;-75
2022/01/23 00:55:44;;;;;;;18.67;9.83;;;;;;;-1.83;83.62;101896.10;1666897;86;21044;-75
2022/01/23 00:58:12;;;;;;;22.42;9.73;;;;;;;-1.77;83.59;101895.08;1666744;86;22347;-75
2022/01/23 01:00:41;;;;;;;19.10;10.40;;;;;;;-1.73;83.50;101893.48;1666821;86;21032;-75
2022/01/23 01:03:09;;;;;;;20.87;9.53;;;;;;;-1.66;83.53;101907.91;1666629;86;21036;-74
2022/01/23 01:05:36;;;;;;;19.87;9.90;;;;;;;-1.61;83.54;101914.48;1666979;85;21056;-75
2022/01/23 01:08:06;;;;;;;17.70;9.07;;;;;;;-1.57;83.53;101908.23;1666661;86;21051;-75
2022/01/23 01:10:50;;;;;;;21.02;9.78;;;;;;;-1.50;83.49;101906.75;1667074;86;21851;-76
2022/01/23 01:13:11;;;;;;;22.00;9.30;;;;;;;-1.44;83.53;101904.81;1666339;86;21508;-75
2022/01/23 01:15:54;;;;;;;18.63;8.73;;;;;;;-1.39;83.46;101908.02;1667023;86;20945;-75
2022/01/23 01:32:01;;;;;;;20.77;9.23;;;;;;;-1.20;83.16;101886.81;1666705;86;21059;-75
2022/01/23 01:34:35;;;;;;;18.87;9.60;;;;;;;-1.17;83.19;101898.49;1666974;85;21069;-75
2022/01/23 01:36:53;;;;;;;20.63;10.23;;;;;;;-1.15;83.17;101902.00;1665800;86;21149;-74
2022/01/23 01:39:27;;;;;;;19.53;9.13;;;;;;;-1.13;83.22;101905.09;1666778;86;21021;-74
2022/01/23 01:41:57;;;;;;;18.40;8.53;;;;;;;-1.09;83.20;101901.34;1666706;86;21096;-74
2022/01/23 01:44:27;;;;;;;16.53;9.10;;;;;;;-1.06;83.12;101892.44;1666644;86;21500;-75
2022/01/23 01:46:59;;;;;;;18.07;10.20;;;;;;;-1.03;83.09;101888.67;1662378;86;21157;-73
2022/01/23 01:49:30;;;;;;;18.70;9.10;;;;;;;-1.01;83.03;101887.04;1666216;86;21901;-76
2022/01/23 01:52:00;;;;;;;18.77;9.13;;;;;;;-0.99;82.86;101870.83;1673867;85;20924;-74
2022/01/23 01:54:29;;;;;;;18.35;8.80;;;;;;;-0.98;82.92;101878.13;1675711;85;20941;-76
2022/01/23 01:57:08;;;;;;;20.00;8.90;;;;;;;-0.96;82.87;101868.77;1670066;85;21041;-82
2022/01/23 02:00:11;;;;;;;27.07;15.18;;;;;;;-1.00;82.74;101884.91;1667251;85;21089;-74
2022/01/23 02:10:47;;;;;;;19.17;8.83;;;;;;;-1.02;82.61;101904.19;1666911;86;21021;-73
2022/01/23 02:13:13;;;;;;;20.47;9.27;;;;;;;-1.03;82.70;101904.12;1665997;85;21355;-74
2022/01/23 02:16:15;;;;;;;21.90;10.30;;;;;;;-1.01;82.97;101907.63;1665433;86;21149;-75
2022/01/23 02:51:24;;;;;;;24.40;11.87;;;;;;;-1.10;82.92;101906.03;1666636;86;21077;-76
2022/01/23 02:54:08;;;;;;;23.17;10.80;;;;;;;-1.14;82.92;101912.36;1663559;86;21088;-76
2022/01/23 02:56:31;;;;;;;27.50;13.63;;;;;;;-1.10;83.15;101918.90;1665255;85;21133;-76
2022/01/23 02:59:10;;;;;;;33.03;15.77;;;;;;;-1.11;83.06;101924.43;1666087;85;21560;-75
2022/01/23 03:01:21;;;;;;;34.43;15.80;;;;;;;-1.13;83.00;101928.25;1672638;85;21029;-76
2022/01/23 03:03:57;;;;;;;34.03;14.87;;;;;;;-1.14;82.92;101933.33;1676124;85;21048;-76
2022/01/23 03:25:09;;;;;;;31.67;15.50;;;;;;;-1.27;82.97;101917.89;1666965;86;21048;-75
2022/01/23 03:30:25;;;;;;;40.37;18.67;;;;;;;-1.32;82.86;101917.27;1640056;85;21102;-76
2022/01/23 03:32:52;;;;;;;36.97;18.07;;;;;;;-1.34;82.85;101918.48;1676391;85;21493;-76
2022/01/23 03:35:21;;;;;;;40.90;18.20;;;;;;;-1.36;82.92;101922.69;1681119;85;22094;-76
2022/01/23 03:37:49;;;;;;;35.97;17.10;;;;;;;-1.36;82.90;101926.55;1679918;85;21549;-76
2022/01/23 03:40:17;;;;;;;39.43;18.67;;;;;;;-1.37;82.91;101917.95;1681101;85;21031;-76
2022/01/23 03:42:48;;;;;;;35.63;17.80;;;;;;;-1.37;82.90;101923.10;1672531;85;21041;-76
2022/01/23 03:47:53;;;;;;;39.97;17.93;;;;;;;-1.36;82.93;101905.58;1668203;85;21522;-76
2022/01/23 03:50:12;;;;;;;38.20;17.20;;;;;;;-1.37;82.95;101907.67;1641465;85;21044;-76
2022/01/23 03:52:41;;;;;;;37.00;16.80;;;;;;;-1.36;83.05;101896.97;1666513;86;21607;-76
2022/01/23 03:55:09;;;;;;;41.47;18.50;;;;;;;-1.35;83.12;101906.03;1670529;85;21099;-76
2022/01/23 03:57:37;;;;;;;34.83;16.93;;;;;;;-1.35;83.04;101899.61;1670992;85;21073;-75
2022/01/23 04:00:06;;;;;;;36.17;17.87;;;;;;;-1.32;83.10;101903.12;1667158;85;21136;-76
2022/01/23 04:02:34;;;;;;;33.63;16.23;;;;;;;-1.33;83.20;101902.25;1667812;84;21475;-76
2022/01/23 04:05:02;;;;;;;38.17;17.57;;;;;;;-1.30;83.31;101906.20;1665365;86;21064;-75
2022/01/23 04:07:31;;;;;;;39.10;18.47;;;;;;;-1.31;83.19;101904.85;1666577;85;21593;-76
2022/01/23 04:09:58;;;;;;;39.17;16.80;;;;;;;-1.31;83.27;101901.00;1666888;86;21389;-76
2022/01/23 04:33:44;;;;;;;30.50;15.30;;;;;;;-1.17;83.75;101919.08;1667382;85;21028;-75
2022/01/23 04:47:36;;;;;;;37.87;17.03;;;;;;;-1.12;83.56;101946.72;1669416;85;21068;-75
2022/01/23 05:00:35;;;;;;;37.13;17.77;;;;;;;-1.06;83.93;101955.48;1678368;85;21033;-75
2022/01/23 05:05:47;;;;;;;33.43;16.00;;;;;;;-1.06;83.98;101952.48;1666615;85;21120;-76
2022/01/23 05:08:20;;;;;;;33.67;16.90;;;;;;;-1.05;83.99;101949.50;1667421;84;21042;-76
2022/01/23 05:10:49;;;;;;;33.07;15.50;;;;;;;-1.06;84.13;101952.91;1632175;86;22245;-76
2022/01/23 05:13:18;;;;;;;35.27;16.83;;;;;;;-1.04;84.12;101959.86;1664177;86;21048;-76
2022/01/23 05:15:45;;;;;;;33.47;16.37;;;;;;;-1.02;84.06;101954.78;1672209;85;21113;-75
2022/01/23 05:18:12;;;;;;;34.33;17.47;;;;;;;-1.01;84.10;101964.25;1681227;85;21116;-76
2022/01/23 05:20:40;;;;;;;32.87;16.97;;;;;;;-1.01;84.13;101963.83;1681053;85;21532;-75
2022/01/23 05:23:09;;;;;;;30.83;15.37;;;;;;;-1.00;83.98;101967.27;1672956;85;21087;-75
2022/01/23 05:25:37;;;;;;;34.90;16.43;;;;;;;-1.00;83.87;101968.56;1671868;84;21043;-75
2022/01/23 05:28:08;;;;;;;32.83;15.30;;;;;;;-1.01;83.91;101975.83;1667528;85;21005;-76
2022/01/23 05:30:36;;;;;;;28.87;15.07;;;;;;;-1.02;83.92;101971.09;1670854;85;21155;-75
2022/01/23 05:33:05;;;;;;;33.07;15.73;;;;;;;-1.03;83.86;101968.45;1676922;85;20989;-76
2022/01/23 05:35:32;;;;;;;32.37;15.00;;;;;;;-1.04;83.86;101966.71;1680314;85;21532;-75
2022/01/23 05:38:00;;;;;;;32.10;16.23;;;;;;;-1.05;83.89;101963.66;1639553;86;21116;-75
2022/01/23 05:40:30;;;;;;;35.50;16.33;;;;;;;-1.04;83.95;101964.14;1674589;85;21047;-75
2022/01/23 05:42:57;;;;;;;35.17;17.57;;;;;;;-1.04;83.90;101965.42;1672325;85;21084;-75
2022/01/23 05:45:25;;;;;;;37.17;18.00;;;;;;;-1.04;83.92;101970.16;1668739;84;21068;-75
2022/01/23 05:48:00;;;;;;;38.63;19.97;;;;;;;-1.03;83.94;101971.90;1676878;85;21028;-75
2022/01/23 05:50:29;;;;;;;62.40;29.13;;;;;;;-1.02;83.96;101978.81;1676121;85;21147;-75
2022/01/23 05:53:01;;;;;;;76.57;35.97;;;;;;;-1.02;84.02;101981.80;1664127;86;21065;-75
2022/01/23 05:55:42;;;;;;;78.03;39.17;;;;;;;-0.99;84.04;101979.34;1667387;85;21518;-75
2022/01/23 05:58:13;;;;;;;71.03;35.00;;;;;;;-0.99;83.98;101982.78;1663666;85;21029;-75
2022/01/23 06:00:42;;;;;;;92.07;44.93;;;;;;;-0.98;84.00;101974.64;1669033;85;21008;-75
2022/01/23 06:03:11;;;;;;;68.40;33.83;;;;;;;-0.99;83.97;101975.48;1665097;84;21051;-75
2022/01/23 06:05:40;;;;;;;54.67;26.10;;;;;;;-1.00;84.02;101975.89;1666110;86;21023;-75
2022/01/23 06:08:09;;;;;;;44.70;21.30;;;;;;;-0.97;84.07;101981.53;1666035;85;21226;-75
2022/01/23 06:10:53;;;;;;;45.13;22.40;;;;;;;-0.97;84.10;101982.44;1640672;85;21467;-74
2022/01/23 06:13:05;;;;;;;43.83;20.50;;;;;;;-0.94;84.12;101990.67;1677889;85;21336;-75
2022/01/23 06:15:32;;;;;;;36.43;17.77;;;;;;;-0.93;84.14;101994.58;1680163;85;21005;-75
2022/01/23 06:17:59;;;;;;;53.43;26.37;;;;;;;-0.94;84.05;102004.42;1675490;85;21594;-75
2022/01/23 06:20:45;;;;;;;92.90;38.87;;;;;;;-0.92;84.19;102002.75;1670413;84;21211;-75
2022/01/23 06:23:28;;;;;;;97.60;41.10;;;;;;;-0.89;84.17;102011.00;1607927;88;21131;-75
2022/01/23 06:25:57;;;;;;;92.17;38.33;;;;;;;-0.87;84.20;102013.64;1684600;84;21039;-75
2022/01/23 06:28:40;;;;;;;87.13;35.57;;;;;;;-0.88;84.17;102014.47;1690821;84;21031;-75
2022/01/23 06:31:08;;;;;;;74.07;31.93;;;;;;;-0.86;84.30;102008.52;1688663;84;21032;-75
2022/01/23 06:33:36;;;;;;;47.13;22.37;;;;;;;-0.82;84.41;102009.12;1664528;86;21131;-75
2022/01/23 06:36:04;;;;;;;39.63;18.20;;;;;;;-0.79;84.53;102003.20;1664631;84;21517;-75
2022/01/23 06:38:31;;;;;;;39.67;18.53;;;;;;;-0.73;84.62;102007.27;1680433;85;20917;-75
2022/01/23 06:41:00;;;;;;;36.77;18.40;;;;;;;-0.69;84.67;102008.73;1664305;86;21049;-75
2022/01/23 06:43:44;;;;;;;44.90;20.30;;;;;;;-0.68;84.69;102004.03;1669262;85;21043;-75
2022/01/23 06:46:16;;;;;;;44.40;20.63;;;;;;;-0.66;84.54;102006.67;1676128;85;21145;-75
2022/01/23 06:48:43;;;;;;;44.40;20.03;;;;;;;-0.66;84.53;101998.08;1671938;85;21055;-75
2022/01/23 06:51:10;;;;;;;39.40;18.73;;;;;;;-0.64;84.48;101998.98;1680588;85;21020;-75
2022/01/23 06:53:37;;;;;;;39.43;18.03;;;;;;;-0.63;84.67;102000.75;1664842;84;21056;-75
2022/01/23 06:56:04;;;;;;;34.50;17.23;;;;;;;-0.61;84.70;101995.22;1664513;85;21562;-75
2022/01/23 06:58:31;;;;;;;28.73;12.83;;;;;;;-0.58;84.78;102000.47;1674233;85;21152;-75
2022/01/23 07:00:59;;;;;;;23.63;11.50;;;;;;;-0.53;85.28;101997.64;1672914;85;21039;-75
2022/01/23 07:03:38;;;;;;;23.03;11.90;;;;;;;-0.45;85.66;102002.23;1665077;85;21008;-75
2022/01/23 07:06:12;;;;;;;27.80;12.73;;;;;;;-0.38;85.88;102008.48;1676606;85;20925;-75
2022/01/23 07:08:44;;;;;;;22.03;11.47;;;;;;;-0.32;86.12;102007.39;1674848;84;21047;-75
2022/01/23 07:11:15;;;;;;;26.03;10.83;;;;;;;-0.28;86.28;102005.40;1653298;84;21158;-75
2022/01/23 07:13:44;;;;;;;25.73;10.43;;;;;;;-0.21;86.50;102019.77;1663930;85;21499;-76
2022/01/23 07:16:16;;;;;;;18.43;8.80;;;;;;;-0.16;86.69;102024.24;1672568;85;21052;-75
2022/01/23 07:19:02;;;;;;;23.00;11.13;;;;;;;-0.11;86.81;102029.53;1664473;86;20929;-76
2022/01/23 07:21:31;;;;;;;27.35;12.37;;;;;;;-0.08;86.83;102020.64;1676154;85;21087;-76
2022/01/23 07:24:04;;;;;;;26.40;12.57;;;;;;;-0.04;86.95;102027.20;1680553;85;21115;-75
2022/01/23 07:26:33;;;;;;;31.03;13.77;;;;;;;0.00;87.04;102028.20;1675403;84;20969;-75
2022/01/23 07:29:04;;;;;;;24.40;12.98;;;;;;;0.03;87.07;102035.13;1667993;85;21024;-76
2022/01/23 07:34:06;;;;;;;47.70;20.00;;;;;;;0.08;87.17;102042.19;1672933;85;21040;-75
2022/01/23 07:36:36;;;;;;;29.12;14.73;;;;;;;0.10;87.22;102037.97;1662644;86;21154;-76
2022/01/23 07:39:05;;;;;;;22.70;12.20;;;;;;;0.13;87.19;102034.61;1674095;85;21047;-75
2022/01/23 07:41:36;;;;;;;26.33;12.03;;;;;;;0.14;87.22;102041.12;1661606;86;21029;-75
2022/01/23 07:44:06;;;;;;;24.27;13.13;;;;;;;0.17;87.29;102046.38;1659289;84;21020;-75
2022/01/23 07:46:41;;;;;;;22.50;11.73;;;;;;;0.19;87.32;102039.57;1616627;84;21050;-75
2022/01/23 07:49:16;;;;;;;31.90;15.70;;;;;;;0.23;87.38;102044.82;1654645;86;21156;-75
2022/01/23 07:52:04;;;;;;;31.33;15.33;;;;;;;0.26;87.40;102048.78;1675634;85;21038;-77
2022/01/23 07:54:41;;;;;;;31.43;15.40;;;;;;;0.28;87.42;102049.30;1650355;85;21008;-76
2022/01/23 07:57:26;;;;;;;24.20;13.23;;;;;;;0.32;87.41;102050.26;1614742;88;21080;-76
2022/01/23 08:00:01;;;;;;;33.00;14.93;;;;;;;0.33;87.49;102054.16;1633664;87;21005;-76
2022/01/23 08:02:43;;;;;;;31.80;15.00;;;;;;;0.35;87.57;102050.34;1641899;84;21124;-76
2022/01/23 08:05:28;;;;;;;26.60;13.47;;;;;;;0.38;87.64;102059.47;1660768;86;21775;-76
2022/01/23 08:08:09;;;;;;;23.63;12.60;;;;;;;0.41;87.63;102061.72;1618376;86;21102;-76
2022/01/23 08:10:39;;;;;;;27.30;13.97;;;;;;;0.43;87.72;102063.94;1660937;86;21087;-76
2022/01/23 08:13:06;;;;;;;28.90;14.43;;;;;;;0.46;87.76;102068.32;1661092;86;21103;-76
2022/01/23 08:15:34;;;;;;;30.97;15.17;;;;;;;0.48;87.72;102074.83;1660924;86;21800;-77
2022/01/23 08:18:05;;;;;;;43.90;19.40;;;;;;;0.50;87.80;102081.80;1661147;86;21119;-76
2022/01/23 08:20:34;;;;;;;43.37;22.27;;;;;;;0.53;87.86;102080.59;1654276;84;21028;-77
2022/01/23 08:23:02;;;;;;;36.50;16.77;;;;;;;0.56;87.98;102087.14;1653917;85;22149;-75
2022/01/23 08:25:32;;;;;;;36.17;17.33;;;;;;;0.59;87.93;102087.66;1642951;85;21054;-76
2022/01/23 08:27:59;;;;;;;42.43;21.13;;;;;;;0.63;87.99;102094.64;1685559;84;21949;-76
2022/01/23 08:30:26;;;;;;;47.63;27.93;;;;;;;0.66;88.05;102098.60;1622405;87;21069;-78
2022/01/23 08:32:53;;;;;;;44.87;23.50;;;;;;;0.69;88.06;102100.41;1683249;85;21447;-77
2022/01/23 08:35:21;;;;;;;46.57;22.27;;;;;;;0.72;88.16;102103.98;1661902;84;21017;-79
2022/01/23 08:37:48;;;;;;;51.17;24.13;;;;;;;0.76;88.11;102103.23;1654636;86;21028;-80
2022/01/23 08:40:21;;;;;;;49.13;26.77;;;;;;;0.80;88.14;102107.64;1654511;86;21112;-76
2022/01/23 08:42:46;;;;;;;43.10;21.20;;;;;;;0.82;88.12;102108.98;1677185;85;21023;-77
2022/01/23 08:45:14;;;;;;;39.30;18.70;;;;;;;0.85;88.14;102107.79;1671544;85;21091;-82
2022/01/23 08:47:42;;;;;;;41.20;22.27;;;;;;;0.88;88.13;102109.17;1670101;85;20949;-76
2022/01/23 08:50:09;;;;;;;37.43;20.10;;;;;;;0.91;88.16;102115.70;1667133;84;21107;-85
2022/01/23 08:52:36;;;;;;;32.67;20.73;;;;;;;0.96;88.13;102121.02;1662989;86;21149;-83
2022/01/23 08:55:04;;;;;;;46.37;25.00;;;;;;;0.98;88.15;102118.08;1654845;86;21035;-75
2022/01/23 08:57:31;;;;;;;29.43;16.17;;;;;;;1.01;88.20;102115.59;1665839;85;21108;-76
2022/01/23 08:59:57;;;;;;;42.20;20.33;;;;;;;1.06;88.26;102116.18;1671855;84;21029;-76
2022/01/23 09:02:25;;;;;;;34.07;19.80;;;;;;;1.09;88.23;102120.56;1619628;87;21145;-75
2022/01/23 09:04:52;;;;;;;30.97;17.50;;;;;;;1.13;88.17;102130.55;1662307;86;21210;-75
2022/01/23 09:07:18;;;;;;;29.40;16.47;;;;;;;1.16;88.23;102138.39;1653042;86;21106;-76
2022/01/23 09:09:45;;;;;;;35.40;17.80;;;;;;;1.18;88.24;102136.31;1665510;84;21048;-75
2022/01/23 09:14:42;;;;;;;23.33;11.87;;;;;;;1.25;88.28;102139.97;1678350;84;22417;-76
2022/01/23 09:17:09;;;;;;;21.53;11.47;;;;;;;1.28;88.26;102143.94;1650427;86;21459;-76
2022/01/23 09:19:36;;;;;;;21.20;11.73;;;;;;;1.29;88.32;102141.38;1647506;86;21085;-76
2022/01/23 09:22:04;;;;;;;23.10;12.90;;;;;;;1.30;88.29;102140.56;1666808;86;21037;-77
2022/01/23 09:24:31;;;;;;;25.43;13.27;;;;;;;1.32;88.34;102145.76;1665084;85;21010;-80
2022/01/23 09:27:04;;;;;;;25.50;13.07;;;;;;;1.33;88.33;102150.08;1652861;84;21111;-78
2022/01/23 09:29:36;;;;;;;28.67;15.90;;;;;;;1.33;88.29;102150.08;1668212;85;22646;-83
2022/01/23 09:32:07;;;;;;;22.67;12.97;;;;;;;1.34;88.38;102150.14;1666504;85;21501;-77
2022/01/23 09:34:36;;;;;;;21.17;12.00;;;;;;;1.38;88.41;102150.23;1668131;84;21524;-76
2022/01/23 09:37:07;;;;;;;21.53;13.33;;;;;;;1.38;88.44;102147.64;1669667;84;21036;-77
2022/01/23 09:39:35;;;;;;;;;;;;;;;1.42;88.61;102149.50;1667254;86;21036;-76
2022/01/23 09:42:16;;;;;;;28.10;16.17;;;;;;;1.45;88.68;102147.00;1645868;86;21244;-76
2022/01/23 09:44:56;;;;;;;21.57;12.37;;;;;;;1.47;88.72;102138.84;1664747;86;21045;-75
2022/01/23 09:47:23;;;;;;;;;;;;;;;1.52;88.73;102141.16;1638330;86;21506;-80
2022/01/23 09:49:52;;;;;;;19.60;10.73;;;;;;;1.55;88.81;102139.55;1663675;86;20429;-80
2022/01/23 09:52:21;;;;;;;17.67;10.77;;;;;;;1.61;88.83;102141.43;1671478;85;21045;-76
2022/01/23 09:55:01;;;;;;;18.03;9.90;;;;;;;1.62;88.77;102138.42;1676455;85;21141;-78
2022/01/23 09:57:30;;;;;;;16.20;9.83;;;;;;;1.65;88.79;102139.80;1679338;85;21023;-79
2022/01/23 10:00:01;;;;;;;;;;;;;;;1.67;88.74;102133.83;1640124;87;21123;-82
2022/01/23 10:02:30;;;;;;;;;;;;;;;1.70;88.87;102136.50;1676629;85;20202;-79
2022/01/23 10:04:57;;;;;;;20.87;11.73;;;;;;;1.73;88.89;102134.00;1650876;86;21296;-82
2022/01/23 10:07:25;;;;;;;22.80;13.07;;;;;;;1.76;88.94;102134.07;1637379;87;21144;-79
2022/01/23 10:09:54;;;;;;;18.93;11.17;;;;;;;1.79;88.95;102134.58;1670209;84;21072;-78
2022/01/23 10:12:26;;;;;;;17.67;11.50;;;;;;;1.84;88.85;102138.59;1659030;86;21445;-80
2022/01/23 10:14:50;;;;;;;21.60;12.53;;;;;;;1.86;88.98;102132.63;1612425;87;21081;-77
2022/01/23 10:17:17;;;;;;;22.53;12.03;;;;;;;1.93;89.12;102130.64;1679070;85;21538;-78
2022/01/23 10:19:45;;;;;;;21.50;12.23;;;;;;;1.99;89.16;102123.45;1676315;85;21937;-77
2022/01/23 10:22:14;;;;;;;19.33;11.73;;;;;;;2.04;89.18;102119.28;1677730;85;21009;-77
2022/01/23 10:24:42;;;;;;;17.70;11.47;;;;;;;2.09;89.14;102120.70;1624502;85;21044;-78
2022/01/23 10:27:09;;;;;;;20.47;11.93;;;;;;;2.13;89.08;102117.34;1664200;86;21024;-77
2022/01/23 10:29:38;;;;;;;15.93;9.77;;;;;;;2.17;88.92;102121.34;1664536;86;21064;-77
2022/01/23 10:32:19;;;;;;;17.93;10.40;;;;;;;2.18;88.91;102117.91;1664637;86;21123;-77
2022/01/23 10:34:51;;;;;;;86.23;28.10;;;;;;;2.27;88.99;102126.73;1663834;86;21048;-77
2022/01/23 10:37:41;;;;;;;21.33;10.70;;;;;;;2.33;89.07;102123.00;1664484;86;21061;-77
2022/01/23 10:40:12;;;;;;;;;;;;;;;2.39;89.03;102118.00;1667089;86;21032;-81
2022/01/23 10:50:52;;;;;;;17.27;9.63;;;;;;;2.55;88.79;102114.04;1662733;86;21506;-75
2022/01/23 10:53:19;;;;;;;21.47;10.83;;;;;;;2.57;88.72;102126.61;1664226;86;21052;-75
2022/01/23 10:58:01;;;;;;;20.93;11.20;;;;;;;2.66;88.83;102125.52;1818613;78;27210;-81
2022/01/23 11:00:39;;;;;;;23.00;11.17;;;;;;;2.67;88.83;102119.52;1792232;80;21022;-76
2022/01/23 11:03:22;;;;;;;27.90;13.30;;;;;;;2.70;88.77;102118.72;1786483;80;21468;-77
2022/01/23 11:05:53;;;;;;;19.13;11.30;;;;;;;2.73;88.79;102118.78;1787275;80;21010;-75
2022/01/23 11:08:30;;;;;;;20.68;11.35;;;;;;;2.74;88.80;102114.91;1787420;80;21070;-74
2022/01/23 11:11:01;;;;;;;19.30;10.20;;;;;;;2.75;88.78;102114.09;1757101;81;20980;-74
2022/01/23 11:19:30;;;;;;;22.73;11.27;;;;;;;2.82;88.83;102126.75;1757094;81;21007;-74
2022/01/23 11:22:00;;;;;;;21.53;11.57;;;;;;;2.83;88.93;102115.57;1757052;81;20999;-76
2022/01/23 11:24:44;;;;;;;17.37;9.33;;;;;;;2.87;88.91;102119.96;1757345;81;21344;-75
2022/01/23 11:27:11;;;;;;;19.57;9.90;;;;;;;2.91;88.83;102121.80;1757027;81;20999;-90
2022/01/23 11:29:52;;;;;;;23.40;10.93;;;;;;;2.95;88.90;102124.02;1757278;81;21044;-75
2022/01/23 11:32:23;;;;;;;28.40;12.83;;;;;;;2.97;88.78;102123.64;1757061;81;21005;-79
2022/01/23 11:34:53;;;;;;;29.18;13.32;;;;;;;2.98;88.72;102124.09;1757438;81;21002;-79
2022/01/23 11:37:20;;;;;;;29.60;12.50;;;;;;;2.98;88.85;102118.91;1756983;81;21015;-79
2022/01/23 11:39:49;;;;;;;21.80;11.63;;;;;;;2.99;88.79;102125.83;1757225;81;21478;-77
2022/01/23 11:53:51;;;;;;;103.90;38.70;;;;;;;3.05;88.92;102137.64;1757052;81;21015;-75
2022/01/23 11:56:33;;;;;;;21.73;9.83;;;;;;;3.07;88.98;102139.39;1762868;80;22098;-75
2022/01/23 11:59:28;;;;;;;16.90;9.00;;;;;;;3.13;89.13;102136.06;1789624;80;21004;-75
2022/01/23 12:02:20;;;;;;;16.97;9.47;;;;;;;3.19;89.08;102134.92;1789975;80;21017;-73
2022/01/23 12:04:46;;;;;;;27.13;13.30;;;;;;;3.21;89.07;102143.58;1790462;80;20996;-74
2022/01/23 12:07:18;;;;;;;27.87;14.73;;;;;;;3.25;89.01;102148.00;1759817;80;21020;-74
2022/01/23 12:10:25;;;;;;;28.43;15.07;;;;;;;3.24;88.93;102146.66;1790120;80;21205;-74
2022/01/23 12:12:51;;;;;;;30.77;14.90;;;;;;;3.26;88.93;102141.09;1710300;83;22218;-76
2022/01/23 12:18:20;;;;;;;36.67;17.97;;;;;;;3.27;88.95;102131.16;1707876;83;21008;-75
2022/01/23 12:20:51;;;;;;;40.87;20.57;;;;;;;3.27;88.97;102131.16;1664975;84;21123;-76
2022/01/23 12:23:19;;;;;;;35.00;17.85;;;;;;;3.28;89.06;102136.82;1680795;84;21865;-76
2022/01/23 12:25:52;;;;;;;34.17;16.90;;;;;;;3.29;88.94;102142.02;1681939;84;21059;-75
2022/01/23 12:28:34;;;;;;;34.87;16.00;;;;;;;3.26;88.80;102133.31;1683697;84;21050;-76
2022/01/23 12:31:28;;;;;;;31.63;14.70;;;;;;;3.25;88.89;102136.77;1683224;84;20940;-75
2022/01/23 12:34:01;;;;;;;32.93;14.40;;;;;;;3.22;88.82;102134.11;1641719;86;21672;-75
2022/01/23 12:36:32;;;;;;;32.53;14.97;;;;;;;3.19;88.74;102132.33;1680780;84;21197;-74
2022/01/23 12:39:11;;;;;;;32.80;15.90;;;;;;;3.15;88.74;102134.38;1680410;84;21107;-75
2022/01/23 12:41:43;;;;;;;26.67;14.77;;;;;;;3.13;88.87;102131.78;1697468;83;21012;-74
2022/01/23 12:44:28;;;;;;;31.50;15.20;;;;;;;3.12;88.94;102133.89;1749219;80;21008;-74
2022/01/23 12:47:02;;;;;;;29.43;15.37;;;;;;;3.11;89.02;102136.47;1759454;80;21259;-73
2022/01/23 12:49:38;;;;;;;32.73;16.13;;;;;;;3.11;89.07;102132.58;1718337;83;21242;-73
2022/01/23 12:52:13;;;;;;;30.50;14.33;;;;;;;3.07;88.89;102132.05;1718332;83;21028;-73
2022/01/23 12:54:57;;;;;;;34.33;16.33;;;;;;;3.05;89.02;102124.26;1718289;83;21027;-74
2022/01/23 12:57:37;;;;;;;30.53;15.53;;;;;;;3.06;89.11;102122.54;1724259;83;20912;-75
2022/01/23 13:00:20;;;;;;;32.87;15.97;;;;;;;3.04;89.01;102121.20;1729755;82;20993;-73
2022/01/23 13:02:50;;;;;;;33.43;16.97;;;;;;;3.01;89.11;102125.02;1729213;82;22159;-75
2022/01/23 13:05:17;;;;;;;36.23;18.15;;;;;;;3.03;89.22;102133.70;1729738;82;20974;-75
2022/01/23 13:32:40;;;;;;;49.53;26.80;;;;;;;2.93;89.38;102131.75;1699424;82;21036;-74
2022/01/23 13:35:10;;;;;;;53.17;25.27;;;;;;;2.95;89.42;102131.80;1717858;81;21023;-74
2022/01/23 13:37:40;;;;;;;48.10;24.60;;;;;;;2.94;89.40;102138.70;1721990;83;21032;-75
2022/01/23 13:40:26;;;;;;;39.47;21.60;;;;;;;2.93;89.38;102134.34;1729405;81;21026;-74
2022/01/23 13:59:52;;;;;;;52.17;27.07;;;;;;;2.94;89.51;102135.20;1728874;83;21048;-78
2022/01/23 14:02:30;;;;;;;45.30;21.67;;;;;;;2.94;89.70;102139.09;1728369;83;21019;-79
2022/01/23 14:05:19;;;;;;;39.07;18.70;;;;;;;2.98;89.90;102147.40;1728806;83;21008;-76
2022/01/23 14:08:01;;;;;;;36.57;18.40;;;;;;;2.98;89.80;102153.88;1728842;83;21564;-77
2022/01/23 14:10:47;;;;;;;53.80;26.47;;;;;;;2.94;89.67;102160.71;1728790;83;21171;-76
2022/01/23 14:13:19;;;;;;;37.73;17.83;;;;;;;2.93;89.55;102177.50;1728767;83;21103;-75
2022/01/23 14:15:51;;;;;;;39.90;18.77;;;;;;;2.87;89.55;102170.04;1728833;83;21020;-80
2022/01/23 14:18:26;;;;;;;32.67;15.90;;;;;;;2.85;89.69;102176.89;1728678;83;21016;-77
2022/01/23 14:21:04;;;;;;;33.03;15.13;;;;;;;2.89;89.92;102174.84;1728513;83;21093;-75
2022/01/23 14:23:34;;;;;;;37.87;18.73;;;;;;;2.90;90.00;102175.28;1728842;83;22280;-76
2022/01/23 14:26:15;;;;;;;38.03;20.43;;;;;;;2.92;90.01;102183.53;1728674;83;21020;-74
2022/01/23 14:28:47;;;;;;;42.78;20.72;;;;;;;2.92;90.00;102184.41;1728982;83;21016;-74
2022/01/23 14:31:23;;;;;;;46.23;22.87;;;;;;;2.85;89.79;102185.09;1729069;83;21546;-75
2022/01/23 14:33:56;;;;;;;45.30;20.97;;;;;;;2.83;89.80;102191.54;1728819;83;21070;-74
2022/01/23 14:36:28;;;;;;;36.80;18.87;;;;;;;2.80;89.72;102191.86;1729063;83;21584;-75
2022/01/23 14:39:03;;;;;;;40.40;19.53;;;;;;;2.78;89.72;102197.03;1728744;83;21043;-73
2022/01/23 14:41:35;;;;;;;38.57;17.43;;;;;;;2.77;89.62;102196.98;1705152;83;21055;-76
2022/01/23 14:44:26;;;;;;;41.00;18.10;;;;;;;2.69;89.40;102192.94;1728875;83;21032;-75
2022/01/23 14:46:57;;;;;;;39.40;18.10;;;;;;;2.66;89.40;102195.42;1729000;83;21004;-74
2022/01/23 14:49:28;;;;;;;37.17;17.00;;;;;;;2.66;89.59;102187.65;1728849;83;21147;-77
2022/01/23 14:52:00;;;;;;;40.33;18.67;;;;;;;2.66;89.76;102192.83;1729273;83;21004;-75
2022/01/23 14:54:31;;;;;;;37.27;17.37;;;;;;;2.64;89.61;102192.81;1728809;82;21524;-74
2022/01/23 14:57:03;;;;;;;38.90;16.87;;;;;;;2.63;89.60;102188.88;1701663;83;21083;-76
2022/01/23 14:59:33;;;;;;;38.55;17.05;;;;;;;2.61;89.56;102184.97;1702971;84;21040;-75
2022/01/23 15:02:02;;;;;;;44.30;18.30;;;;;;;2.60;89.56;102180.61;1702931;84;22042;-75
2022/01/23 15:04:29;;;;;;;37.40;17.97;;;;;;;2.56;89.47;102180.52;1705348;81;20993;-75
2022/01/23 15:06:56;;;;;;;32.47;15.63;;;;;;;2.54;89.61;102186.08;1754814;81;21016;-75
2022/01/23 15:09:24;;;;;;;33.97;16.13;;;;;;;2.53;89.72;102179.16;1710705;81;21059;-75